Churchville, Virginia
Current Conditions -  °F | °C
As of 4:15 AM on Wednesday 22 Oct 2014 (Local Time) from KSHD Reporting Station
Overcast Overcast  
Wind Chill: 51°   Ceiling: 4800
Heat Index: 51°   Visibility: 10mi
Dew Point: 41°   Wind: 0mph
Humidity: 68%   Direction: NA
Pressure: 29.95"   Gusts: NA
Location:  38.23°N, 79.16°W
Report Text: KSHD 220815Z AUTO 00000KT 10SM BKN048 OVC055 11/05 A2995 RMK AO2 T01070051
Loading
Personal Weather Stations






























Interactive Weather Map
Tropical Storm Tracking
New forecast layout! Learn more

10-Day Weather Forecast

Advertisements
Track Severe Weather on mobile